Universal Bremen — LXEM — position and weather

sailwx.info

Track history (hours):
 
Tides and Currents Weather Stations Pressure Air Temp Water Temp Dewpoint Dewpoint Depression Visibility Wind Speed Wind Dir Waves Ship Positions

Universal Bremen

Last reported at 2014-Dec-22 11:27 UTC. Time now 2014-Dec-22 12:05 UTC.
Position N 01°11' E 103°49'.

Length 189 m; draft 13.5 m.

Type: Cargo ship. MMSI: 253466000.

Date/timePositionNaut miles runAvg speedWind from/ knotsBaromVisibWave heightAir tempDewpointWater temp
2014-Dec-22 11:27N 01°11' E 103°49'8 9.3
2014-Dec-22 10:33N 01°14' E 103°56'6 5.0
2014-Dec-22 09:27N 01°18' E 104°01'0 0.1
2014-Dec-22 08:33N 01°18' E 104°01'0 0.0
2014-Dec-22 07:18N 01°18' E 104°01'0 0.1
2014-Dec-22 06:24N 01°18' E 104°01'0 0.0
2014-Dec-22 05:06N 01°18' E 104°01'0 0.1
2014-Dec-22 04:24N 01°18' E 104°01'0 0.1
2014-Dec-22 03:18N 01°18' E 104°01'0 0.2
2014-Dec-22 02:24N 01°18' E 104°00'0 0.0
2014-Dec-22 01:24N 01°18' E 104°00'0 0.0
2014-Dec-22 00:30N 01°18' E 104°00'0 0.1
2014-Dec-21 23:30N 01°18' E 104°00'2 2.1
2014-Dec-21 22:33N 01°16' E 103°59'5 5.3
2014-Dec-21 21:33N 01°16' E 104°05'  
Track history (hours):
 
Tides and Currents Weather Stations Pressure Air Temp Water Temp Dewpoint Dewpoint Depression Visibility Wind Speed Wind Dir Waves Ship Positions

Universal Bremen

Last reported at 2014-Dec-22 11:27 UTC. Time now 2014-Dec-22 12:05 UTC.
Position N 01°11' E 103°49'.

Length 189 m; draft 13.5 m.

Type: Cargo ship. MMSI: 253466000.

Date/timePositionNaut miles runAvg speedWind from/ knotsBaromVisibWave heightAir tempDewpointWater temp
2014-Dec-22 11:27N 01°11' E 103°49'8 9.3
2014-Dec-22 10:33N 01°14' E 103°56'6 5.0
2014-Dec-22 09:27N 01°18' E 104°01'0 0.1
2014-Dec-22 08:33N 01°18' E 104°01'0 0.0
2014-Dec-22 07:18N 01°18' E 104°01'0 0.1
2014-Dec-22 06:24N 01°18' E 104°01'0 0.0
2014-Dec-22 05:06N 01°18' E 104°01'0 0.1
2014-Dec-22 04:24N 01°18' E 104°01'0 0.1
2014-Dec-22 03:18N 01°18' E 104°01'0 0.2
2014-Dec-22 02:24N 01°18' E 104°00'0 0.0
2014-Dec-22 01:24N 01°18' E 104°00'0 0.0
2014-Dec-22 00:30N 01°18' E 104°00'0 0.1
2014-Dec-21 23:30N 01°18' E 104°00'2 2.1
2014-Dec-21 22:33N 01°16' E 103°59'5 5.3
2014-Dec-21 21:33N 01°16' E 104°05'  

Dump ship's entire track history